Time;durP1;ratioP1;P1;durP2;ratioP2;P2;SDS_P1;SDS_P2;PMS_P1;PMS_P2;Temp;Humidity;BMP_temperature;BMP_pressure;BME280_temperature;BME280_humidity;BME280_pressure;Samples;Min_cycle;Max_cycle;Signal;HPM_P1;HPM_P2
2022/08/24 00:01:22;;;;;;;4.32;1.63;;;25.20;97.40;;;;;;5063731;28;20044;-73
2022/08/24 00:03:50;;;;;;;4.85;2.03;;;25.10;97.40;;;;;;5084339;28;20402;-73
2022/08/24 00:06:20;;;;;;;5.53;2.95;;;25.10;97.40;;;;;;5052120;28;20098;-73
2022/08/24 00:08:50;;;;;;;5.90;2.47;;;25.10;97.50;;;;;;5048254;28;20511;-73
2022/08/24 00:11:19;;;;;;;4.97;1.80;;;25.10;97.50;;;;;;5049043;28;20060;-74
2022/08/24 00:13:46;;;;;;;6.20;2.45;;;25.10;97.50;;;;;;5032941;28;20053;-74
2022/08/24 00:16:15;;;;;;;4.65;1.80;;;25.10;97.50;;;;;;5050379;28;20059;-75
2022/08/24 00:18:44;;;;;;;3.35;1.83;;;25.10;97.50;;;;;;5032739;28;20134;-75
2022/08/24 00:21:11;;;;;;;3.00;1.80;;;25.00;97.60;;;;;;5065907;28;20056;-74
2022/08/24 00:23:39;;;;;;;5.25;1.90;;;25.00;97.70;;;;;;5065935;28;20057;-75
2022/08/24 00:26:08;;;;;;;6.22;2.15;;;25.00;97.80;;;;;;5032370;28;20052;-74
2022/08/24 00:28:36;;;;;;;6.72;2.42;;;25.00;97.70;;;;;;5049024;28;20099;-75
2022/08/24 00:31:03;;;;;;;4.28;2.60;;;24.90;97.70;;;;;;5050023;28;20057;-74
2022/08/24 00:33:31;;;;;;;4.40;2.55;;;24.90;97.80;;;;;;5065317;28;20037;-74
2022/08/24 00:35:59;;;;;;;5.00;2.90;;;24.90;97.90;;;;;;5048872;28;20111;-74
2022/08/24 00:38:26;;;;;;;7.00;3.42;;;24.80;97.90;;;;;;5082343;28;20503;-75
2022/08/24 00:40:54;;;;;;;5.90;2.40;;;24.80;97.90;;;;;;5065576;28;20045;-74
2022/08/24 00:43:25;;;;;;;7.15;2.60;;;24.80;98.00;;;;;;5048398;28;20063;-74
2022/08/24 00:46:20;;;;;;;4.68;1.88;;;24.70;98.00;;;;;;5048944;28;20041;-74
2022/08/24 00:48:53;;;;;;;5.57;3.03;;;24.70;98.10;;;;;;5048953;28;20168;-75
2022/08/24 00:51:29;;;;;;;6.00;2.15;;;24.70;98.10;;;;;;5048795;28;20049;-74
2022/08/24 00:54:04;;;;;;;2.70;1.75;;;24.70;98.20;;;;;;5065577;28;20053;-74
2022/08/24 00:56:36;;;;;;;4.78;2.58;;;24.70;98.10;;;;;;5083862;28;20129;-74
2022/08/24 00:59:11;;;;;;;3.78;1.60;;;24.70;98.10;;;;;;5053288;28;20100;-74
2022/08/24 01:01:40;;;;;;;4.70;1.65;;;24.70;98.10;;;;;;5086033;28;20045;-75
2022/08/24 01:04:14;;;;;;;7.18;2.40;;;24.70;98.10;;;;;;5069431;28;20036;-74
2022/08/24 01:06:42;;;;;;;4.97;2.22;;;24.70;98.20;;;;;;5052775;28;20139;-74
2022/08/24 01:09:10;;;;;;;3.30;1.58;;;24.60;98.20;;;;;;5085599;28;20670;-76
2022/08/24 01:11:37;;;;;;;3.65;2.05;;;24.60;98.30;;;;;;5068910;28;20041;-75
2022/08/24 01:14:05;;;;;;;4.05;2.13;;;24.60;98.40;;;;;;5068965;28;20377;-74
2022/08/24 01:19:45;;;;;;;3.80;1.73;;;24.60;98.40;;;;;;5052204;28;20052;-75
2022/08/24 01:22:32;;;;;;;5.72;2.40;;;24.50;98.40;;;;;;5052218;28;20392;-74
2022/08/24 01:25:00;;;;;;;3.70;2.25;;;24.50;98.40;;;;;;5052200;28;20206;-74
2022/08/24 01:27:28;;;;;;;3.67;2.22;;;24.50;98.40;;;;;;5051855;28;20071;-74
2022/08/24 01:30:00;;;;;;;5.30;2.88;;;24.50;98.50;;;;;;5051609;28;20095;-75
2022/08/24 01:32:28;;;;;;;6.65;1.92;;;24.50;98.50;;;;;;5068463;28;20057;-74
2022/08/24 01:34:57;;;;;;;4.03;2.03;;;24.40;98.50;;;;;;5053136;28;20132;-75
2022/08/24 01:37:25;;;;;;;3.50;2.03;;;24.40;98.50;;;;;;5068303;28;20086;-74
2022/08/24 01:39:56;;;;;;;3.53;2.30;;;24.40;98.50;;;;;;5068402;28;20049;-74
2022/08/24 01:42:25;;;;;;;3.90;2.30;;;24.40;98.40;;;;;;5085027;28;20044;-74
2022/08/24 01:44:52;;;;;;;3.53;1.85;;;24.40;98.40;;;;;;5068631;28;20877;-74
2022/08/24 01:47:20;;;;;;;4.63;2.33;;;24.40;98.40;;;;;;5085055;28;20043;-74
2022/08/24 01:49:48;;;;;;;4.38;1.80;;;24.40;98.40;;;;;;5068231;28;20099;-74
2022/08/24 01:52:23;;;;;;;6.28;2.20;;;24.50;98.40;;;;;;5068146;28;20526;-75
2022/08/24 01:54:53;;;;;;;4.00;1.90;;;24.40;98.40;;;;;;5035210;28;20495;-75
2022/08/24 01:57:24;;;;;;;3.53;1.88;;;24.40;98.30;;;;;;5051377;28;20049;-74
2022/08/24 01:59:52;;;;;;;7.60;3.15;;;24.40;98.40;;;;;;5068426;28;20052;-74
2022/08/24 02:02:26;;;;;;;3.80;2.38;;;24.40;98.40;;;;;;5035125;28;20489;-74
2022/08/24 02:04:53;;;;;;;3.20;1.63;;;24.40;98.40;;;;;;5068149;28;20179;-74
2022/08/24 02:07:22;;;;;;;5.30;2.47;;;24.40;98.30;;;;;;5067484;28;20066;-74
2022/08/24 02:09:50;;;;;;;4.75;2.30;;;24.40;98.40;;;;;;5067745;28;20044;-75
2022/08/24 02:12:19;;;;;;;3.53;2.17;;;24.40;98.40;;;;;;5051307;28;20720;-74
2022/08/24 02:14:47;;;;;;;4.05;2.10;;;24.40;98.50;;;;;;5051240;28;20632;-74
2022/08/24 02:17:15;;;;;;;5.07;2.30;;;24.40;98.50;;;;;;5034496;28;20427;-76
2022/08/24 02:19:43;;;;;;;3.70;2.10;;;24.40;98.50;;;;;;5034629;28;20052;-74
2022/08/24 02:22:10;;;;;;;4.05;2.33;;;24.30;98.50;;;;;;5084479;28;20080;-75
2022/08/24 02:24:39;;;;;;;3.50;1.95;;;24.30;98.50;;;;;;5067748;28;20143;-74
2022/08/24 02:27:07;;;;;;;3.55;2.22;;;24.30;98.60;;;;;;5050990;28;20158;-74
2022/08/24 02:29:35;;;;;;;3.92;2.03;;;24.30;98.60;;;;;;5067127;28;20384;-74
2022/08/24 02:32:03;;;;;;;3.63;1.75;;;24.30;98.50;;;;;;5034424;28;20057;-74
2022/08/24 02:34:31;;;;;;;3.85;1.63;;;24.30;98.80;;;;;;5050872;28;20061;-75
2022/08/24 02:36:58;;;;;;;4.45;1.80;;;24.30;98.50;;;;;;5050401;28;20467;-74
2022/08/24 02:39:28;;;;;;;2.50;1.67;;;24.30;98.60;;;;;;5050424;28;20115;-74
2022/08/24 02:41:56;;;;;;;2.92;2.05;;;24.20;98.60;;;;;;5045536;28;20406;-74
2022/08/24 02:44:23;;;;;;;8.63;2.85;;;24.30;98.60;;;;;;5050753;28;20044;-74
2022/08/24 02:46:51;;;;;;;2.55;1.55;;;24.20;98.50;;;;;;5074040;28;20099;-74
2022/08/24 02:49:20;;;;;;;3.25;1.33;;;24.20;98.60;;;;;;5051494;28;20403;-74
2022/08/24 02:51:49;;;;;;;6.95;1.70;;;24.20;98.60;;;;;;5066992;28;20045;-74
2022/08/24 02:54:19;;;;;;;5.25;1.90;;;24.20;98.60;;;;;;5067614;28;20045;-74
2022/08/24 02:56:50;;;;;;;4.18;2.03;;;24.20;98.70;;;;;;5034186;28;20045;-74
2022/08/24 02:59:18;;;;;;;2.95;1.60;;;24.20;98.70;;;;;;5033467;28;20044;-74
2022/08/24 03:01:48;;;;;;;4.32;1.60;;;24.20;98.70;;;;;;5088606;28;20044;-74
2022/08/24 03:04:18;;;;;;;6.10;1.75;;;24.20;98.60;;;;;;5066839;28;20048;-74
2022/08/24 03:06:46;;;;;;;6.82;2.40;;;24.20;98.70;;;;;;5050297;28;20534;-75
2022/08/24 03:09:14;;;;;;;3.95;1.50;;;24.20;98.70;;;;;;5050316;28;20394;-74
2022/08/24 03:11:42;;;;;;;4.15;1.70;;;24.10;98.60;;;;;;5050179;28;20048;-74
2022/08/24 03:14:10;;;;;;;4.80;1.75;;;24.10;98.60;;;;;;5049964;28;20044;-74
2022/08/24 03:16:38;;;;;;;3.33;2.13;;;24.10;98.60;;;;;;5066455;28;20045;-74
2022/08/24 03:19:06;;;;;;;3.40;1.52;;;24.10;98.70;;;;;;5065834;28;20572;-74
2022/08/24 03:21:35;;;;;;;3.45;2.00;;;24.10;98.70;;;;;;5033373;28;20121;-74
2022/08/24 03:24:03;;;;;;;3.20;1.75;;;24.00;98.80;;;;;;5050088;28;20473;-74
2022/08/24 03:26:32;;;;;;;4.13;1.83;;;24.00;98.80;;;;;;5066547;28;20084;-74
2022/08/24 03:28:59;;;;;;;2.83;1.73;;;24.00;98.80;;;;;;5054635;28;20087;-76
2022/08/24 03:31:29;;;;;;;5.38;1.70;;;24.00;98.90;;;;;;5082673;28;20064;-74
2022/08/24 03:33:58;;;;;;;4.43;2.05;;;24.00;98.90;;;;;;5049514;28;20510;-74
2022/08/24 03:36:26;;;;;;;3.08;1.60;;;24.00;98.90;;;;;;5066217;28;20057;-74
2022/08/24 03:38:54;;;;;;;4.30;1.85;;;24.00;98.90;;;;;;5082992;28;20160;-74
2022/08/24 03:41:22;;;;;;;5.03;1.60;;;23.90;98.90;;;;;;5066280;28;20053;-74
2022/08/24 03:43:50;;;;;;;3.45;2.42;;;23.90;98.90;;;;;;5066229;28;20098;-74
2022/08/24 03:46:27;;;;;;;3.90;2.03;;;23.90;98.90;;;;;;5082872;28;20036;-74
2022/08/24 03:48:57;;;;;;;3.97;1.63;;;23.90;98.90;;;;;;5066181;28;20498;-74
2022/08/24 03:51:27;;;;;;;4.97;1.90;;;23.90;98.90;;;;;;5032709;28;20053;-74
2022/08/24 03:53:56;;;;;;;4.70;2.25;;;23.90;98.90;;;;;;5032813;28;20098;-74
2022/08/24 03:56:27;;;;;;;3.72;1.80;;;23.80;99.00;;;;;;5032850;28;20052;-74
2022/08/24 03:58:56;;;;;;;4.20;1.70;;;23.80;99.00;;;;;;5065661;28;20507;-74
2022/08/24 04:01:27;;;;;;;4.85;2.00;;;23.80;99.10;;;;;;5065761;28;20068;-74
2022/08/24 04:03:55;;;;;;;2.65;1.67;;;23.80;99.10;;;;;;5082750;28;20494;-75
2022/08/24 04:06:28;;;;;;;3.58;1.75;;;23.80;99.20;;;;;;5032934;28;20507;-74
2022/08/24 04:08:56;;;;;;;3.45;1.80;;;23.70;99.20;;;;;;5049049;28;20044;-74
2022/08/24 04:11:26;;;;;;;3.13;1.83;;;23.70;99.20;;;;;;5082417;28;20045;-75
2022/08/24 04:13:56;;;;;;;2.90;1.65;;;23.70;99.20;;;;;;5032904;28;20057;-75
2022/08/24 04:16:25;;;;;;;5.15;2.03;;;23.70;99.30;;;;;;5032948;28;20077;-74
2022/08/24 04:19:03;;;;;;;5.68;2.00;;;23.70;99.30;;;;;;5047467;28;20076;-74
2022/08/24 04:21:33;;;;;;;4.45;2.13;;;23.70;99.40;;;;;;5032115;28;20045;-74
2022/08/24 04:24:06;;;;;;;4.18;2.00;;;23.70;99.40;;;;;;5046117;28;20088;-75
2022/08/24 04:26:36;;;;;;;3.92;1.80;;;23.70;99.50;;;;;;5082788;28;20492;-75
2022/08/24 04:29:08;;;;;;;5.28;2.65;;;23.70;99.50;;;;;;5049116;28;20129;-76
2022/08/24 04:31:41;;;;;;;3.10;2.05;;;23.70;99.50;;;;;;5052716;28;20048;-75
2022/08/24 04:34:12;;;;;;;5.82;2.58;;;23.80;99.40;;;;;;5053092;28;20045;-75
2022/08/24 04:36:42;;;;;;;4.95;1.75;;;23.80;99.50;;;;;;5053025;28;20110;-75
2022/08/24 04:39:10;;;;;;;4.68;1.45;;;23.80;99.50;;;;;;5069656;28;20077;-74
2022/08/24 04:41:56;;;;;;;5.83;2.10;;;23.70;99.40;;;;;;5067067;28;20445;-74
2022/08/24 04:44:26;;;;;;;2.63;1.60;;;23.80;99.40;;;;;;5069233;28;20043;-75
2022/08/24 04:46:55;;;;;;;4.00;2.00;;;23.80;99.40;;;;;;5052885;28;20689;-74
2022/08/24 04:49:23;;;;;;;3.80;2.35;;;23.80;99.50;;;;;;5052627;28;20438;-75
2022/08/24 04:51:50;;;;;;;3.42;1.90;;;23.80;99.60;;;;;;5069421;28;20053;-76
2022/08/24 04:54:18;;;;;;;5.05;2.05;;;23.70;99.60;;;;;;5036431;28;20049;-75
2022/08/24 04:56:55;;;;;;;5.88;2.17;;;23.80;99.70;;;;;;5086478;28;20045;-75
2022/08/24 04:59:22;;;;;;;4.63;1.95;;;23.80;99.80;;;;;;5052985;28;20475;-75
2022/08/24 05:01:52;;;;;;;4.22;1.95;;;23.80;99.80;;;;;;5086127;28;20048;-75
2022/08/24 05:04:20;;;;;;;4.22;2.28;;;23.80;99.90;;;;;;5052656;28;20231;-75
2022/08/24 05:06:49;;;;;;;5.70;2.25;;;23.90;99.90;;;;;;5069161;28;20083;-75
2022/08/24 05:09:18;;;;;;;3.97;2.10;;;24.10;99.90;;;;;;5036119;28;20041;-75
2022/08/24 05:11:46;;;;;;;4.78;2.15;;;24.40;99.90;;;;;;5052521;28;20049;-75
2022/08/24 05:14:17;;;;;;;4.97;1.98;;;24.50;99.70;;;;;;5059018;28;20144;-75
2022/08/24 05:16:45;;;;;;;5.40;2.15;;;24.80;99.60;;;;;;5073674;28;20055;-76
2022/08/24 05:19:13;;;;;;;3.55;2.17;;;24.90;99.30;;;;;;5056349;28;20041;-75
2022/08/24 05:21:43;;;;;;;5.15;1.92;;;25.20;99.20;;;;;;5089056;28;20572;-75
2022/08/24 05:24:11;;;;;;;4.88;1.85;;;25.40;98.90;;;;;;5055607;28;20153;-75
2022/08/24 05:26:39;;;;;;;6.82;2.10;;;25.60;98.70;;;;;;5055598;28;20044;-75
2022/08/24 05:29:06;;;;;;;4.15;2.78;;;25.80;98.50;;;;;;5055384;28;20076;-75
2022/08/24 05:31:43;;;;;;;4.95;2.35;;;26.10;98.20;;;;;;5071047;28;20503;-75
2022/08/24 05:34:13;;;;;;;7.05;2.97;;;26.30;97.90;;;;;;5088821;28;20123;-75
2022/08/24 05:36:41;;;;;;;7.45;3.08;;;26.50;97.70;;;;;;5055329;28;20094;-75
2022/08/24 05:39:20;;;;;;;7.13;3.65;;;26.70;97.40;;;;;;5055114;28;20048;-76
2022/08/24 05:41:55;;;;;;;8.32;2.97;;;26.90;97.30;;;;;;5054959;28;20050;-75
2022/08/24 05:44:26;;;;;;;7.97;3.88;;;27.10;97.00;;;;;;5071255;28;20110;-75
2022/08/24 05:46:58;;;;;;;9.40;3.83;;;27.20;96.70;;;;;;5071720;28;20555;-76
2022/08/24 05:49:28;;;;;;;7.60;4.25;;;27.40;96.70;;;;;;5071469;28;20490;-75
2022/08/24 05:51:55;;;;;;;7.82;4.03;;;27.60;96.50;;;;;;5088350;28;20052;-75
2022/08/24 05:54:25;;;;;;;7.05;4.15;;;27.70;96.40;;;;;;5088489;28;20052;-75
2022/08/24 05:57:03;;;;;;;5.20;2.60;;;27.90;96.30;;;;;;5105726;28;20862;-75
2022/08/24 05:59:37;;;;;;;7.47;2.45;;;28.00;96.10;;;;;;5054585;28;20048;-75
2022/08/24 06:02:11;;;;;;;6.85;2.60;;;28.10;95.90;;;;;;5054665;28;20408;-76
2022/08/24 06:04:39;;;;;;;3.92;2.17;;;28.30;95.80;;;;;;5071787;28;20056;-75
2022/08/24 06:07:10;;;;;;;4.60;1.83;;;28.50;95.60;;;;;;5087627;28;20056;-75
2022/08/24 06:09:42;;;;;;;3.40;1.63;;;28.60;95.40;;;;;;5084225;28;20499;-77
2022/08/24 06:12:13;;;;;;;5.40;2.08;;;28.80;95.10;;;;;;5068126;28;20049;-75
2022/08/24 06:14:46;;;;;;;4.22;1.67;;;28.90;95.00;;;;;;5051038;28;20043;-75
2022/08/24 06:17:18;;;;;;;2.85;1.70;;;29.00;94.90;;;;;;5067265;28;20047;-75
2022/08/24 06:19:46;;;;;;;4.35;2.28;;;29.10;94.80;;;;;;5084822;28;20044;-75
2022/08/24 06:22:14;;;;;;;3.28;1.80;;;29.20;94.70;;;;;;5034586;28;20044;-75
2022/08/24 06:27:28;;;;;;;8.90;2.38;;;29.40;94.30;;;;;;5050957;28;20118;-75
2022/08/24 06:30:04;;;;;;;3.72;1.70;;;29.50;94.10;;;;;;5067683;28;20144;-75
2022/08/24 06:33:02;;;;;;;3.13;1.80;;;29.60;94.20;;;;;;5071813;28;20068;-75
2022/08/24 06:35:42;;;;;;;4.20;2.15;;;29.70;93.90;;;;;;5034723;28;20053;-75
2022/08/24 06:38:12;;;;;;;4.75;1.58;;;29.80;93.70;;;;;;5084793;28;20045;-75
2022/08/24 06:40:41;;;;;;;2.95;1.83;;;29.70;93.50;;;;;;5034607;28;20143;-75
2022/08/24 06:43:10;;;;;;;3.45;1.58;;;29.70;93.50;;;;;;5034341;28;20044;-75
2022/08/24 06:45:53;;;;;;;3.22;1.70;;;29.60;93.50;;;;;;5065664;28;20088;-76
2022/08/24 06:48:29;;;;;;;2.58;1.58;;;29.60;93.60;;;;;;5035190;28;20041;-76
2022/08/24 06:50:57;;;;;;;4.10;1.50;;;29.70;93.70;;;;;;5067313;28;20036;-75
2022/08/24 06:53:26;;;;;;;4.65;1.20;;;29.70;93.50;;;;;;5033434;28;20125;-76
2022/08/24 06:55:57;;;;;;;2.38;1.50;;;29.80;93.20;;;;;;5051905;28;20052;-75
2022/08/24 06:58:31;;;;;;;2.85;1.23;;;30.00;93.10;;;;;;5050724;28;20837;-75
2022/08/24 07:01:12;;;;;;;2.15;1.35;;;30.00;93.00;;;;;;5040717;28;20541;-76
2022/08/24 07:03:40;;;;;;;3.78;2.08;;;29.80;93.00;;;;;;5054133;28;20059;-75
2022/08/24 07:06:26;;;;;;;5.03;1.98;;;29.70;92.80;;;;;;5071699;28;20399;-75
2022/08/24 07:08:58;;;;;;;2.67;1.30;;;29.80;92.80;;;;;;5086460;28;20056;-75
2022/08/24 07:11:26;;;;;;;2.13;1.10;;;30.00;92.70;;;;;;5053891;28;20140;-75
2022/08/24 07:13:54;;;;;;;3.40;1.13;;;30.20;92.50;;;;;;5053743;28;20117;-75
2022/08/24 07:16:22;;;;;;;5.53;1.65;;;30.40;92.30;;;;;;5087349;28;20105;-75
2022/08/24 07:18:52;;;;;;;4.43;1.30;;;30.50;92.10;;;;;;5087184;28;20101;-76
2022/08/24 07:21:22;;;;;;;3.70;1.75;;;30.30;91.20;;;;;;5053327;28;20094;-75
2022/08/24 07:23:57;;;;;;;3.55;1.45;;;30.30;91.40;;;;;;5086507;28;20051;-75
2022/08/24 07:26:28;;;;;;;2.33;1.40;;;30.30;91.90;;;;;;5069953;28;20045;-75
2022/08/24 07:29:05;;;;;;;1.70;1.02;;;30.30;92.00;;;;;;5053315;28;20045;-75
2022/08/24 07:31:41;;;;;;;2.70;1.00;;;30.40;91.90;;;;;;5069825;28;20041;-75
2022/08/24 07:34:31;;;;;;;2.15;1.25;;;30.60;91.70;;;;;;5086953;28;20045;-75
2022/08/24 07:36:59;;;;;;;3.15;1.30;;;30.60;91.00;;;;;;5069780;28;20048;-75
2022/08/24 07:39:29;;;;;;;2.38;0.93;;;30.60;90.20;;;;;;5086400;28;20037;-75
2022/08/24 07:41:58;;;;;;;4.88;0.98;;;30.60;90.00;;;;;;5053053;28;20151;-75
2022/08/24 07:44:38;;;;;;;1.55;0.55;;;30.60;90.10;;;;;;5055158;28;20486;-75
2022/08/24 07:47:06;;;;;;;0.90;0.60;;;30.60;89.90;;;;;;5086534;28;20075;-76
2022/08/24 07:49:47;;;;;;;0.88;0.82;;;30.70;90.10;;;;;;5103421;28;20044;-76
2022/08/24 07:52:15;;;;;;;1.23;0.90;;;30.80;90.00;;;;;;5086002;28;20395;-75
2022/08/24 07:54:44;;;;;;;2.13;0.50;;;30.80;89.80;;;;;;5086147;28;20122;-75
2022/08/24 07:57:12;;;;;;;1.10;0.50;;;30.80;90.20;;;;;;5069479;28;20095;-76
2022/08/24 07:59:41;;;;;;;3.13;1.55;;;30.70;90.20;;;;;;5069502;28;20043;-75
2022/08/24 08:02:10;;;;;;;1.85;0.73;;;30.60;90.30;;;;;;5053179;28;20052;-75
2022/08/24 08:04:39;;;;;;;2.38;1.15;;;30.70;90.70;;;;;;5103425;28;20498;-75
2022/08/24 08:07:07;;;;;;;2.28;1.15;;;30.80;90.70;;;;;;5069306;28;20048;-75
2022/08/24 08:09:37;;;;;;;2.97;1.02;;;31.10;90.80;;;;;;5069291;28;20166;-75
2022/08/24 08:12:07;;;;;;;1.13;0.70;;;31.00;90.70;;;;;;5069205;28;20139;-75
2022/08/24 08:14:40;;;;;;;1.27;0.63;;;31.20;90.80;;;;;;5085545;28;20052;-76
2022/08/24 08:17:08;;;;;;;1.67;0.80;;;31.40;90.60;;;;;;5069591;28;20047;-75
2022/08/24 08:19:35;;;;;;;2.45;0.95;;;31.50;90.50;;;;;;5068544;28;20411;-76
2022/08/24 08:25:13;;;;;;;2.78;1.15;;;31.80;90.30;;;;;;5063818;28;20048;-76
2022/08/24 08:27:41;;;;;;;4.60;2.15;;;31.70;90.40;;;;;;5068965;28;20088;-75
2022/08/24 08:30:15;;;;;;;1.70;1.02;;;31.50;90.60;;;;;;5067965;28;20049;-75
2022/08/24 08:32:43;;;;;;;1.63;0.90;;;31.20;91.00;;;;;;5086269;28;20131;-75
2022/08/24 08:35:12;;;;;;;1.40;1.00;;;31.10;91.30;;;;;;5052461;28;20163;-75
2022/08/24 08:37:42;;;;;;;2.67;1.38;;;31.10;91.40;;;;;;5086094;28;20052;-75
2022/08/24 08:40:35;;;;;;;2.92;1.27;;;31.20;91.30;;;;;;5052776;28;20057;-72
2022/08/24 08:43:26;;;;;;;2.60;1.05;;;31.20;91.10;;;;;;5085827;28;20053;-72
2022/08/24 08:45:59;;;;;;;1.90;0.90;;;31.30;91.10;;;;;;5069399;28;20044;-75
2022/08/24 08:49:27;;;;;;;2.60;1.10;;;31.30;91.10;;;;;;5082085;28;20087;-75
2022/08/24 08:52:07;;;;;;;2.15;1.10;;;31.20;91.00;;;;;;5068629;28;20048;-76
2022/08/24 08:54:47;;;;;;;3.08;1.40;;;31.00;91.10;;;;;;5103148;28;20063;-76
2022/08/24 08:57:25;;;;;;;2.03;1.20;;;30.90;91.40;;;;;;5068937;28;20364;-76
2022/08/24 09:00:21;;;;;;;2.47;1.48;;;31.00;91.50;;;;;;5069039;28;20044;-75
2022/08/24 09:03:16;;;;;;;2.65;1.50;;;31.00;91.40;;;;;;5068551;28;20044;-75
2022/08/24 09:06:39;;;;;;;2.90;1.38;;;30.80;91.60;;;;;;5082900;28;20511;-75
2022/08/24 09:09:40;;;;;;;3.60;1.20;;;30.80;91.70;;;;;;5069232;28;20047;-75
2022/08/24 09:12:45;;;;;;;3.65;1.52;;;30.90;91.90;;;;;;5085615;28;20036;-75
2022/08/24 09:15:29;;;;;;;2.40;1.25;;;30.80;92.00;;;;;;5085620;28;20131;-75
2022/08/24 09:18:34;;;;;;;3.05;1.25;;;30.80;91.90;;;;;;5072332;28;20033;-76
2022/08/24 09:21:14;;;;;;;2.15;1.65;;;30.70;91.90;;;;;;5089111;28;20503;-76
2022/08/24 09:24:23;;;;;;;1.92;1.27;;;30.70;91.90;;;;;;5089210;28;20048;-76
2022/08/24 09:27:19;;;;;;;3.90;1.40;;;30.40;92.10;;;;;;5072360;28;20804;-75
2022/08/24 09:30:11;;;;;;;4.93;1.60;;;30.40;92.30;;;;;;5078229;28;20056;-75
2022/08/24 09:33:05;;;;;;;4.50;1.50;;;30.60;92.00;;;;;;5106160;28;20560;-76
2022/08/24 09:36:06;;;;;;;2.10;1.38;;;30.60;92.10;;;;;;5055595;28;20088;-76
2022/08/24 09:39:10;;;;;;;2.40;1.42;;;30.80;92.20;;;;;;5072013;28;20498;-76
2022/08/24 09:41:39;;;;;;;2.00;1.15;;;30.60;92.10;;;;;;5088570;28;20051;-76
2022/08/24 09:44:44;;;;;;;2.53;1.55;;;30.40;91.80;;;;;;5055135;28;20044;-76
2022/08/24 09:47:19;;;;;;;3.10;1.60;;;30.30;92.30;;;;;;5104338;28;20044;-76
2022/08/24 09:49:50;;;;;;;2.70;1.58;;;30.20;92.60;;;;;;5071737;28;20052;-76
2022/08/24 09:52:51;;;;;;;3.03;1.20;;;30.40;92.60;;;;;;5071741;28;20044;-75
2022/08/24 09:55:37;;;;;;;3.58;1.52;;;30.60;92.30;;;;;;5073159;28;20049;-75
2022/08/24 09:58:26;;;;;;;3.30;1.38;;;30.90;92.30;;;;;;5071794;28;20107;-76
2022/08/24 10:01:07;;;;;;;4.35;2.20;;;30.90;91.50;;;;;;5071744;28;20049;-76
2022/08/24 10:03:56;;;;;;;3.85;1.77;;;30.70;91.70;;;;;;5088462;28;20045;-76
2022/08/24 10:07:18;;;;;;;2.42;1.70;;;30.60;91.90;;;;;;5088361;28;20043;-75
2022/08/24 10:09:57;;;;;;;2.88;1.85;;;30.40;92.00;;;;;;5057366;28;20446;-75
2022/08/24 10:12:49;;;;;;;2.50;1.80;;;30.40;92.10;;;;;;5040377;28;20040;-77
2022/08/24 10:15:26;;;;;;;3.13;1.95;;;30.40;91.90;;;;;;5058831;28;20044;-76
2022/08/24 10:18:09;;;;;;;;;;;30.50;91.80;;;;;;5071954;28;20068;-75
2022/08/24 10:21:00;;;;;;;3.00;2.10;;;30.80;91.80;;;;;;5054973;28;19928;-76
2022/08/24 10:23:46;;;;;;;3.03;2.15;;;31.10;91.40;;;;;;5070924;28;20499;-76
2022/08/24 10:26:23;;;;;;;;;;;31.00;91.30;;;;;;5088637;28;20090;-76
2022/08/24 10:29:05;;;;;;;2.45;1.50;;;31.10;91.30;;;;;;5054923;28;19931;-76
2022/08/24 10:31:57;;;;;;;3.53;1.90;;;31.20;91.10;;;;;;5104547;28;20048;-76
2022/08/24 10:34:45;;;;;;;2.40;1.63;;;31.20;91.10;;;;;;5087879;28;20049;-76
2022/08/24 10:37:50;;;;;;;2.53;1.67;;;31.20;90.80;;;;;;5105251;28;20048;-76
2022/08/24 10:40:27;;;;;;;2.92;1.83;;;31.30;90.80;;;;;;5071170;28;20045;-77
2022/08/24 10:45:59;;;;;;;2.95;1.95;;;31.40;90.80;;;;;;5070979;28;20097;-75
2022/08/24 10:48:30;;;;;;;3.08;1.90;;;31.40;90.50;;;;;;5070588;28;20135;-76
2022/08/24 10:51:28;;;;;;;3.28;1.70;;;31.40;90.50;;;;;;5071815;28;20070;-76
2022/08/24 10:53:57;;;;;;;4.00;1.77;;;31.40;90.50;;;;;;5104137;28;20060;-75
2022/08/24 10:56:37;;;;;;;6.30;2.40;;;31.30;90.70;;;;;;5087625;28;20468;-75
2022/08/24 10:59:28;;;;;;;2.40;1.73;;;31.20;90.60;;;;;;5104132;28;20528;-72
2022/08/24 11:02:06;;;;;;;2.85;1.80;;;31.20;90.40;;;;;;5087570;28;20454;-73
2022/08/24 11:04:34;;;;;;;2.50;1.80;;;31.30;90.30;;;;;;5087161;28;20051;-74
2022/08/24 11:07:19;;;;;;;3.33;2.00;;;31.30;90.50;;;;;;5070004;28;20048;-74
2022/08/24 11:09:52;;;;;;;3.05;1.70;;;31.50;90.50;;;;;;5070110;28;20048;-73
2022/08/24 11:12:32;;;;;;;3.28;2.10;;;31.50;90.40;;;;;;5070074;28;20044;-75
2022/08/24 11:15:09;;;;;;;3.03;2.03;;;31.40;90.30;;;;;;5087056;28;20048;-73
2022/08/24 11:17:51;;;;;;;3.28;2.10;;;31.60;90.30;;;;;;5071172;28;20044;-74
2022/08/24 11:20:31;;;;;;;3.20;2.25;;;31.40;90.20;;;;;;5086615;28;20049;-73
2022/08/24 11:23:05;;;;;;;6.30;2.63;;;31.30;90.40;;;;;;5053734;28;20486;-74
2022/08/24 11:25:37;;;;;;;3.40;2.00;;;31.20;90.60;;;;;;5070110;28;20053;-74
2022/08/24 11:28:13;;;;;;;3.50;2.35;;;31.20;90.80;;;;;;5046140;28;20048;-74
2022/08/24 11:30:41;;;;;;;4.63;2.20;;;31.30;90.80;;;;;;5082692;28;20056;-74
2022/08/24 11:33:27;;;;;;;5.40;2.42;;;31.20;90.30;;;;;;5066279;28;20168;-74
2022/08/24 11:35:56;;;;;;;4.50;2.17;;;31.10;90.50;;;;;;5049797;28;20099;-75
2022/08/24 11:38:30;;;;;;;5.78;2.38;;;31.10;90.60;;;;;;5049574;28;20419;-75
2022/08/24 11:41:19;;;;;;;3.95;2.58;;;31.20;90.40;;;;;;5082446;28;20407;-74
2022/08/24 11:43:49;;;;;;;3.45;2.33;;;31.30;90.70;;;;;;5065807;28;20041;-74
2022/08/24 11:46:45;;;;;;;8.27;3.08;;;31.30;90.90;;;;;;5049777;28;20052;-74
2022/08/24 11:49:39;;;;;;;3.47;2.20;;;31.40;91.00;;;;;;5066047;28;20065;-74
2022/08/24 11:52:29;;;;;;;3.70;2.70;;;31.30;90.70;;;;;;5049045;28;20049;-75
2022/08/24 11:55:16;;;;;;;3.45;2.20;;;31.20;90.70;;;;;;5049315;28;20045;-75
2022/08/24 11:57:58;;;;;;;3.90;2.83;;;31.10;91.00;;;;;;5086712;28;20499;-74
2022/08/24 12:00:56;;;;;;;3.75;2.78;;;30.90;91.00;;;;;;5069453;28;20394;-73
2022/08/24 12:03:55;;;;;;;6.13;3.35;;;30.90;91.10;;;;;;5076225;28;20502;-74
2022/08/24 12:06:23;;;;;;;6.22;3.03;;;30.80;91.10;;;;;;5086153;28;20072;-74
2022/08/24 12:09:02;;;;;;;10.05;3.83;;;30.60;91.00;;;;;;5070445;28;20052;-76
2022/08/24 12:11:46;;;;;;;5.82;4.15;;;30.50;90.90;;;;;;5069266;28;20109;-75
2022/08/24 12:14:59;;;;;;;7.10;4.78;;;30.40;90.90;;;;;;5103073;28;20445;-73
2022/08/24 12:17:38;;;;;;;6.05;4.35;;;30.40;90.50;;;;;;5054464;28;20394;-74
2022/08/24 12:20:17;;;;;;;5.70;3.65;;;30.20;90.10;;;;;;5034485;28;20049;-74
2022/08/24 12:22:52;;;;;;;7.47;4.38;;;30.20;90.40;;;;;;5052635;28;20045;-74
2022/08/24 12:28:09;;;;;;;5.25;3.88;;;30.10;90.70;;;;;;5069634;28;20044;-74
2022/08/24 12:30:36;;;;;;;6.25;4.40;;;30.30;90.70;;;;;;5052460;28;20052;-73
2022/08/24 12:33:12;;;;;;;6.90;4.22;;;30.40;90.40;;;;;;5085682;28;20070;-74
2022/08/24 12:35:51;;;;;;;7.25;4.85;;;30.60;90.10;;;;;;5085477;28;20044;-74
2022/08/24 12:38:27;;;;;;;8.77;4.18;;;30.60;90.50;;;;;;5085851;28;20083;-75
2022/08/24 12:41:17;;;;;;;6.35;5.20;;;30.60;90.20;;;;;;5086015;28;20098;-74
2022/08/24 12:43:51;;;;;;;7.78;4.65;;;30.60;90.60;;;;;;5058494;28;20147;-75
2022/08/24 12:46:25;;;;;;;7.10;4.72;;;30.40;91.00;;;;;;5052419;28;20548;-74
2022/08/24 12:49:26;;;;;;;4.75;3.53;;;30.40;90.90;;;;;;5085756;28;20402;-73
2022/08/24 12:52:08;;;;;;;6.13;3.63;;;30.10;91.20;;;;;;5086012;28;20048;-74
2022/08/24 12:54:59;;;;;;;6.00;3.45;;;29.90;91.50;;;;;;5072952;28;20040;-73
2022/08/24 12:57:38;;;;;;;5.97;4.05;;;29.80;91.80;;;;;;5074050;28;20037;-74
2022/08/24 13:00:31;;;;;;;6.93;3.33;;;29.80;92.20;;;;;;5072663;28;20056;-74
2022/08/24 13:03:21;;;;;;;4.80;3.47;;;29.80;92.30;;;;;;5069237;28;20120;-74
2022/08/24 13:05:55;;;;;;;5.50;3.00;;;29.80;92.20;;;;;;5083757;28;20065;-74
2022/08/24 13:08:40;;;;;;;4.72;3.10;;;29.80;92.40;;;;;;5078363;28;20131;-74
2022/08/24 13:11:13;;;;;;;5.55;3.08;;;29.80;92.30;;;;;;5086869;28;20052;-74
2022/08/24 13:14:17;;;;;;;4.82;3.20;;;29.70;92.10;;;;;;5099828;28;20049;-74
2022/08/24 13:16:46;;;;;;;6.43;3.80;;;29.70;92.40;;;;;;5073816;28;20064;-74
2022/08/24 13:19:35;;;;;;;4.88;3.83;;;29.70;92.30;;;;;;5069096;28;20044;-73
2022/08/24 13:22:09;;;;;;;7.65;3.90;;;29.70;92.20;;;;;;5095653;28;20048;-74
2022/08/24 13:24:56;;;;;;;6.32;3.35;;;29.60;92.20;;;;;;5094053;28;20041;-74
2022/08/24 13:27:36;;;;;;;7.07;4.38;;;29.70;92.10;;;;;;5071493;28;20067;-73
2022/08/24 13:30:17;;;;;;;7.43;5.00;;;29.50;92.80;;;;;;5077577;28;20076;-73
2022/08/24 13:32:54;;;;;;;6.20;4.32;;;29.30;92.60;;;;;;5068822;28;20369;-73
2022/08/24 13:35:40;;;;;;;6.22;4.03;;;29.30;92.70;;;;;;5063853;28;20106;-75
2022/08/24 13:38:26;;;;;;;5.13;3.85;;;29.10;93.10;;;;;;5103959;27;20040;-74
2022/08/24 13:41:25;;;;;;;4.57;3.28;;;29.10;93.60;;;;;;5071659;28;20450;-74
2022/08/24 13:44:05;;;;;;;4.40;3.08;;;29.10;93.50;;;;;;5072351;28;20060;-75
2022/08/24 13:47:14;;;;;;;6.05;3.40;;;29.00;93.20;;;;;;5088931;28;20061;-75